Time;durP1;ratioP1;P1;durP2;ratioP2;P2;SDS_P1;SDS_P2;PMS_P1;PMS_P2;Temp;Humidity;BMP_temperature;BMP_pressure;BME280_temperature;BME280_humidity;BME280_pressure;Samples;Min_cycle;Max_cycle;Signal;HPM_P1;HPM_P2
2023/10/23 00:00:59;;;;;;;7.77;2.17;;;10.30;99.90;;;;;;5016421;28;20170;-79
2023/10/23 00:03:24;;;;;;;4.07;1.43;;;10.70;99.90;;;;;;5018251;28;20203;-79
2023/10/23 00:05:50;;;;;;;7.40;1.87;;;10.60;99.90;;;;;;5035554;28;20170;-80
2023/10/23 00:08:16;;;;;;;7.63;2.10;;;10.50;99.90;;;;;;5035467;28;20174;-80
2023/10/23 00:10:44;;;;;;;7.13;1.87;;;10.50;99.90;;;;;;5035101;28;20224;-78
2023/10/23 00:13:11;;;;;;;9.90;1.60;;;10.70;99.90;;;;;;5036000;28;20174;-78
2023/10/23 00:15:37;;;;;;;6.00;1.60;;;;;;;;;;5047275;28;20189;-78
2023/10/23 00:18:03;;;;;;;7.53;1.90;;;10.80;99.90;;;;;;5050025;28;20178;-79
2023/10/23 00:20:29;;;;;;;5.57;1.70;;;;;;;;;;5037373;28;20185;-79
2023/10/23 00:22:55;;;;;;;8.77;1.87;;;;;;;;;;5035732;28;20681;-78
2023/10/23 00:25:20;;;;;;;5.87;1.90;;;10.70;99.90;;;;;;5035865;28;20178;-78
2023/10/23 00:27:49;;;;;;;5.87;1.90;;;10.80;99.90;;;;;;5036541;28;20658;-79
2023/10/23 00:30:15;;;;;;;10.13;1.67;;;;;;;;;;5035936;28;20244;-78
2023/10/23 00:32:41;;;;;;;7.97;1.63;;;;;;;;;;5033451;28;20319;-76
2023/10/23 00:35:07;;;;;;;11.23;1.77;;;10.80;99.90;;;;;;5033368;28;20249;-77
2023/10/23 00:37:34;;;;;;;9.70;1.50;;;10.80;99.90;;;;;;5033480;28;20642;-77
2023/10/23 00:39:59;;;;;;;6.33;1.50;;;10.90;99.90;;;;;;5033731;28;20166;-78
2023/10/23 00:42:25;;;;;;;5.80;1.43;;;11.00;99.90;;;;;;5033223;28;20181;-77
2023/10/23 00:44:50;;;;;;;5.10;1.10;;;11.00;99.90;;;;;;5033435;28;20177;-77
2023/10/23 00:47:21;;;;;;;3.50;1.37;;;11.20;99.90;;;;;;5033335;28;20177;-81
2023/10/23 00:49:46;;;;;;;7.40;1.80;;;11.00;99.90;;;;;;5033445;28;20206;-81
2023/10/23 00:52:12;;;;;;;5.23;1.20;;;11.20;99.90;;;;;;5033418;28;20248;-80
2023/10/23 00:54:39;;;;;;;5.43;1.50;;;10.90;99.90;;;;;;5033385;28;20682;-78
2023/10/23 00:57:05;;;;;;;8.10;1.87;;;11.60;99.90;;;;;;5033096;28;20204;-78
2023/10/23 00:59:31;;;;;;;6.93;1.67;;;11.00;99.90;;;;;;5033107;28;20209;-78
2023/10/23 01:01:57;;;;;;;5.83;1.67;;;11.00;99.90;;;;;;5015343;28;20166;-78
2023/10/23 01:04:23;;;;;;;8.90;1.60;;;11.10;99.90;;;;;;5033337;28;20220;-78
2023/10/23 01:06:52;;;;;;;5.30;1.37;;;11.00;99.90;;;;;;5032472;28;20244;-79
2023/10/23 01:09:18;;;;;;;5.67;1.20;;;11.10;99.90;;;;;;5032927;28;20178;-78
2023/10/23 01:11:44;;;;;;;5.23;1.43;;;11.00;99.90;;;;;;5033041;28;20181;-78
2023/10/23 01:14:09;;;;;;;4.77;1.47;;;11.00;99.90;;;;;;5033078;28;20173;-78
2023/10/23 01:16:35;;;;;;;6.50;1.30;;;;;;;;;;5032778;28;20165;-78
2023/10/23 01:19:02;;;;;;;10.50;1.43;;;10.90;99.90;;;;;;5032670;28;20193;-79
2023/10/23 01:21:27;;;;;;;6.43;1.43;;;11.00;99.90;;;;;;5032581;28;20222;-78
2023/10/23 01:23:56;;;;;;;7.27;1.70;;;11.00;99.90;;;;;;5032734;28;20214;-78
2023/10/23 01:26:22;;;;;;;4.80;1.33;;;11.20;99.90;;;;;;5032628;28;20265;-79
2023/10/23 01:28:48;;;;;;;7.60;1.60;;;11.00;99.90;;;;;;5032471;28;20185;-79
2023/10/23 01:31:14;;;;;;;8.10;1.00;;;10.90;99.90;;;;;;5032544;28;20178;-78
2023/10/23 01:33:40;;;;;;;7.50;1.30;;;11.20;99.90;;;;;;5032743;28;20196;-79
2023/10/23 01:36:05;;;;;;;4.90;1.30;;;11.10;99.90;;;;;;5032509;28;20174;-78
2023/10/23 01:38:31;;;;;;;8.10;1.40;;;10.70;99.90;;;;;;5032371;28;20185;-78
2023/10/23 01:40:56;;;;;;;4.00;1.30;;;11.20;99.90;;;;;;5032041;28;20595;-78
2023/10/23 01:43:22;;;;;;;7.10;1.30;;;11.20;99.90;;;;;;5032386;28;20289;-77
2023/10/23 01:45:47;;;;;;;10.10;1.20;;;11.20;99.90;;;;;;5032073;28;20695;-78
2023/10/23 01:48:13;;;;;;;5.13;1.30;;;;;;;;;;5032252;28;20177;-79
2023/10/23 01:50:39;;;;;;;6.20;1.17;;;11.20;99.90;;;;;;5031800;28;20608;-78
2023/10/23 01:53:05;;;;;;;5.07;1.40;;;11.30;99.90;;;;;;5032201;28;20245;-78
2023/10/23 01:55:30;;;;;;;7.63;1.30;;;11.30;99.90;;;;;;5032184;28;20170;-78
2023/10/23 01:57:57;;;;;;;5.80;1.00;;;11.20;99.90;;;;;;5031885;28;20178;-78
2023/10/23 02:00:24;;;;;;;5.37;1.30;;;10.90;99.90;;;;;;5031587;28;20178;-78
2023/10/23 02:02:49;;;;;;;4.83;1.30;;;11.20;99.90;;;;;;5032080;28;20216;-78
2023/10/23 02:05:15;;;;;;;6.70;1.40;;;11.20;99.90;;;;;;5032184;28;20174;-79
2023/10/23 02:07:41;;;;;;;4.40;1.00;;;11.10;99.90;;;;;;5046240;28;20175;-78
2023/10/23 02:10:07;;;;;;;8.63;1.20;;;11.00;99.90;;;;;;5047741;28;20182;-77
2023/10/23 02:12:33;;;;;;;5.80;1.00;;;10.90;99.90;;;;;;5032651;28;20253;-76
2023/10/23 02:14:59;;;;;;;4.13;1.10;;;10.70;99.90;;;;;;5032633;28;20710;-77
2023/10/23 02:17:25;;;;;;;3.93;0.83;;;;;;;;;;5031662;28;20706;-77
2023/10/23 02:19:50;;;;;;;10.57;1.40;;;10.50;99.90;;;;;;5030662;28;20178;-78
2023/10/23 02:22:18;;;;;;;7.80;1.30;;;10.70;99.90;;;;;;5031699;28;20225;-78
2023/10/23 02:24:44;;;;;;;4.00;0.90;;;10.70;99.90;;;;;;5031470;28;20655;-78
2023/10/23 02:27:10;;;;;;;5.80;1.10;;;10.60;99.90;;;;;;5031482;28;20174;-79
2023/10/23 02:29:36;;;;;;;5.27;1.10;;;10.70;99.90;;;;;;5031694;28;20643;-78
2023/10/23 02:32:01;;;;;;;10.67;1.27;;;10.70;99.90;;;;;;5031434;28;20170;-79
2023/10/23 02:34:27;;;;;;;9.77;1.37;;;10.60;99.90;;;;;;5031459;28;20166;-79
2023/10/23 02:36:52;;;;;;;3.63;0.90;;;10.50;99.90;;;;;;5032978;28;20546;-78
2023/10/23 02:39:18;;;;;;;4.47;1.33;;;10.50;99.90;;;;;;5047444;28;20174;-78
2023/10/23 02:41:44;;;;;;;3.30;1.13;;;10.50;99.90;;;;;;5040487;28;20636;-77
2023/10/23 02:44:10;;;;;;;8.77;0.77;;;10.50;99.90;;;;;;5032367;28;20216;-76
2023/10/23 02:46:38;;;;;;;5.57;1.03;;;10.60;99.90;;;;;;5031065;28;20174;-75
2023/10/23 02:49:04;;;;;;;4.57;1.17;;;10.40;99.90;;;;;;5031054;28;20228;-76
2023/10/23 02:51:30;;;;;;;2.97;1.17;;;;;;;;;;5031134;28;20277;-76
2023/10/23 02:53:56;;;;;;;6.47;1.20;;;10.60;99.90;;;;;;5030699;28;20178;-75
2023/10/23 02:56:22;;;;;;;5.07;1.13;;;10.60;99.90;;;;;;5031081;28;20278;-76
2023/10/23 02:58:48;;;;;;;3.07;0.83;;;;;;;;;;5030447;28;20178;-77
2023/10/23 03:01:23;;;;;;;4.53;1.07;;;10.70;99.90;;;;;;5030701;28;20189;-77
2023/10/23 03:03:50;;;;;;;3.67;1.00;;;10.70;99.90;;;;;;5030520;28;20590;-77
2023/10/23 03:06:16;;;;;;;6.67;1.40;;;10.80;99.90;;;;;;5030894;28;20188;-77
2023/10/23 03:08:42;;;;;;;3.27;0.80;;;10.80;99.90;;;;;;5030899;28;20375;-76
2023/10/23 03:11:08;;;;;;;4.27;1.10;;;10.70;99.90;;;;;;5031227;28;20170;-77
2023/10/23 03:13:34;;;;;;;5.37;1.30;;;10.80;99.90;;;;;;5030745;28;20190;-78
2023/10/23 03:16:00;;;;;;;2.30;1.03;;;10.80;99.90;;;;;;5030767;28;20190;-78
2023/10/23 03:18:25;;;;;;;5.80;1.23;;;10.70;99.90;;;;;;5030698;28;20215;-78
2023/10/23 03:20:51;;;;;;;3.67;0.87;;;10.80;99.90;;;;;;5030661;28;20616;-77
2023/10/23 03:23:17;;;;;;;3.60;1.00;;;10.40;99.90;;;;;;5030529;28;20245;-77
2023/10/23 03:25:43;;;;;;;4.37;1.10;;;10.80;99.90;;;;;;5030503;28;20224;-78
2023/10/23 03:28:09;;;;;;;4.60;1.00;;;11.00;99.90;;;;;;5030989;28;20177;-78
2023/10/23 03:30:35;;;;;;;5.43;0.90;;;10.90;99.90;;;;;;5032452;28;20170;-78
2023/10/23 03:33:00;;;;;;;2.57;1.37;;;10.90;99.90;;;;;;5035012;28;20178;-77
2023/10/23 03:35:26;;;;;;;3.70;1.13;;;10.80;99.90;;;;;;5034741;28;20178;-78
2023/10/23 03:37:52;;;;;;;5.57;0.93;;;10.80;99.90;;;;;;5034943;28;20197;-78
2023/10/23 03:40:18;;;;;;;4.73;1.10;;;10.90;99.90;;;;;;5016972;28;20174;-78
2023/10/23 03:42:44;;;;;;;6.67;1.10;;;10.90;99.90;;;;;;5034487;28;20221;-78
2023/10/23 03:45:09;;;;;;;6.13;1.17;;;10.80;99.90;;;;;;5016941;28;20227;-78
2023/10/23 03:47:35;;;;;;;4.10;1.00;;;10.80;99.90;;;;;;5034591;28;20169;-77
2023/10/23 03:50:01;;;;;;;5.90;1.17;;;10.90;99.90;;;;;;5017035;28;20273;-78
2023/10/23 03:52:26;;;;;;;4.77;1.00;;;10.90;99.90;;;;;;5034541;28;20178;-76
2023/10/23 03:54:52;;;;;;;7.30;1.23;;;10.90;99.90;;;;;;5016815;28;20655;-78
2023/10/23 03:57:17;;;;;;;5.07;1.40;;;10.90;99.90;;;;;;5034394;28;20166;-77
2023/10/23 03:59:43;;;;;;;7.73;1.27;;;10.70;99.90;;;;;;5034385;28;20538;-78
2023/10/23 04:02:09;;;;;;;5.80;1.40;;;10.70;99.90;;;;;;5034375;28;20180;-78
2023/10/23 04:04:35;;;;;;;5.03;1.30;;;;;;;;;;5034425;28;20206;-78
2023/10/23 04:07:01;;;;;;;7.00;1.40;;;10.80;99.90;;;;;;5034454;28;20178;-78
2023/10/23 04:09:30;;;;;;;4.00;1.13;;;10.90;99.90;;;;;;5034180;28;20659;-78
2023/10/23 04:11:55;;;;;;;6.27;1.40;;;10.60;99.90;;;;;;5034335;28;20182;-78
2023/10/23 04:14:22;;;;;;;6.23;1.03;;;;;;;;;;5034119;28;20193;-79
2023/10/23 04:16:48;;;;;;;6.27;1.40;;;;;;;;;;5034053;28;20205;-79
2023/10/23 04:19:14;;;;;;;5.80;1.27;;;;;;;;;;5034016;28;20193;-79
2023/10/23 04:21:40;;;;;;;3.70;1.23;;;;;;;;;;5013324;28;20226;-79
2023/10/23 04:24:07;;;;;;;6.87;1.50;;;10.70;99.90;;;;;;5014309;28;20260;-79
2023/10/23 04:26:33;;;;;;;8.33;1.50;;;10.60;99.90;;;;;;5013672;28;20210;-78
2023/10/23 04:28:58;;;;;;;3.10;1.30;;;10.60;99.90;;;;;;5012324;28;20197;-78
2023/10/23 04:31:24;;;;;;;8.17;1.50;;;;;;;;;;5012938;28;20182;-78
2023/10/23 04:33:50;;;;;;;7.60;1.30;;;;;;;;;;5013911;28;20163;-78
2023/10/23 04:36:16;;;;;;;4.33;1.20;;;;;;;;;;5014171;28;20574;-78
2023/10/23 04:38:42;;;;;;;5.53;1.33;;;;;;;;;;5014077;28;20162;-78
2023/10/23 04:41:08;;;;;;;3.43;1.50;;;;;;;;;;5013456;28;20206;-78
2023/10/23 04:43:35;;;;;;;6.53;1.30;;;;;;;;;;5013692;28;20210;-77
2023/10/23 04:46:01;;;;;;;7.63;1.60;;;;;;;;;;5013899;28;20209;-78
2023/10/23 04:48:27;;;;;;;5.80;1.50;;;;;;;;;;5014344;28;20195;-77
2023/10/23 04:50:59;;;;;;;8.93;1.60;;;10.40;99.90;;;;;;5013852;28;20257;-78
2023/10/23 04:53:25;;;;;;;6.97;1.20;;;10.10;99.90;;;;;;5014012;28;20633;-77
2023/10/23 04:55:51;;;;;;;5.90;1.40;;;10.20;99.90;;;;;;5013980;28;20167;-77
2023/10/23 04:58:16;;;;;;;4.17;1.50;;;10.30;99.90;;;;;;5013729;28;20221;-78
2023/10/23 05:00:42;;;;;;;5.90;1.60;;;10.40;99.90;;;;;;5032731;28;20155;-78
2023/10/23 05:03:08;;;;;;;9.23;1.50;;;;;;;;;;5033469;28;20693;-76
2023/10/23 05:05:38;;;;;;;8.70;1.67;;;10.40;99.90;;;;;;5015940;28;20221;-78
2023/10/23 05:08:04;;;;;;;4.07;1.50;;;;;;;;;;5014650;28;20226;-78
2023/10/23 05:10:30;;;;;;;7.40;1.77;;;10.50;99.90;;;;;;5014224;28;20175;-77
2023/10/23 05:12:56;;;;;;;5.77;1.33;;;10.40;99.90;;;;;;5014009;28;20171;-77
2023/10/23 05:15:23;;;;;;;10.50;1.57;;;;;;;;;;5013841;28;20214;-76
2023/10/23 05:17:49;;;;;;;8.57;1.60;;;;;;;;;;5013725;28;20174;-77
2023/10/23 05:20:14;;;;;;;6.50;1.20;;;10.00;99.90;;;;;;5011729;28;20265;-77
2023/10/23 05:22:40;;;;;;;7.13;1.63;;;;;;;;;;5027604;28;20835;-77
2023/10/23 05:25:08;;;;;;;5.77;1.33;;;9.90;99.90;;;;;;5030125;28;20181;-77
2023/10/23 05:27:35;;;;;;;6.53;1.53;;;9.90;99.90;;;;;;5032918;28;20174;-78
2023/10/23 05:30:00;;;;;;;8.13;1.53;;;9.90;99.90;;;;;;5032359;28;20625;-77
2023/10/23 05:32:26;;;;;;;6.60;1.43;;;9.90;99.90;;;;;;5032634;28;20185;-77
2023/10/23 05:34:52;;;;;;;9.87;1.40;;;;;;;;;;5014410;28;20193;-76
2023/10/23 05:37:19;;;;;;;4.43;1.37;;;;;;;;;;5031929;28;20633;-77
2023/10/23 05:39:45;;;;;;;4.97;1.43;;;;;;;;;;5031747;28;20181;-77
2023/10/23 05:42:11;;;;;;;7.63;1.50;;;;;;;;;;5014398;28;20231;-77
2023/10/23 05:44:37;;;;;;;4.30;1.20;;;10.60;99.90;;;;;;5031431;28;20287;-77
2023/10/23 05:47:03;;;;;;;6.27;1.37;;;;;;;;;;5032092;28;20184;-77
2023/10/23 05:49:29;;;;;;;5.67;1.30;;;;;;;;;;5027575;28;20241;-77
2023/10/23 05:51:55;;;;;;;10.60;1.40;;;;;;;;;;5031598;28;20174;-77
2023/10/23 05:54:21;;;;;;;9.27;1.53;;;;;;;;;;5031575;28;20813;-77
2023/10/23 05:56:47;;;;;;;6.23;1.50;;;;;;;;;;5031141;28;20178;-78
2023/10/23 05:59:12;;;;;;;8.47;1.97;;;10.60;99.90;;;;;;5031378;28;20189;-78
2023/10/23 06:01:38;;;;;;;7.67;1.70;;;;;;;;;;5032176;28;20170;-78
2023/10/23 06:04:04;;;;;;;6.80;1.80;;;10.40;99.90;;;;;;5031964;28;20675;-78
2023/10/23 06:06:30;;;;;;;5.10;1.47;;;10.30;99.90;;;;;;5014160;28;20276;-77
2023/10/23 06:08:56;;;;;;;11.73;1.83;;;;;;;;;;5032139;28;20174;-78
2023/10/23 06:11:23;;;;;;;11.77;1.80;;;;;;;;;;5014514;28;20180;-77
2023/10/23 06:13:49;;;;;;;10.90;2.10;;;10.30;99.90;;;;;;5032062;28;20232;-78
2023/10/23 06:16:15;;;;;;;8.83;2.17;;;;;;;;;;5031908;28;20178;-78
2023/10/23 06:18:41;;;;;;;7.10;1.33;;;;;;;;;;5031595;28;20240;-77
2023/10/23 06:21:07;;;;;;;10.37;1.87;;;;;;;;;;5031421;28;20221;-79
2023/10/23 06:23:38;;;;;;;7.50;1.80;;;10.10;99.90;;;;;;5031850;28;20214;-77
2023/10/23 06:26:07;;;;;;;8.83;1.93;;;10.20;99.90;;;;;;5031755;28;20173;-79
2023/10/23 06:28:33;;;;;;;3.03;1.70;;;;;;;;;;5014766;28;20652;-76
2023/10/23 06:31:09;;;;;;;4.40;1.13;;;10.30;99.90;;;;;;5031688;28;20166;-79
2023/10/23 06:33:36;;;;;;;8.17;1.20;;;10.40;99.90;;;;;;5031548;28;20180;-74
2023/10/23 06:36:09;;;;;;;5.13;1.57;;;;;;;;;;5013460;28;20177;-74
2023/10/23 06:38:35;;;;;;;5.53;1.20;;;10.50;99.90;;;;;;5029641;28;20170;-73
2023/10/23 06:41:05;;;;;;;5.47;1.40;;;10.80;99.90;;;;;;5030922;28;20185;-71
2023/10/23 06:43:31;;;;;;;6.60;1.40;;;10.60;99.90;;;;;;5011238;28;20301;-72
2023/10/23 06:45:57;;;;;;;5.70;1.20;;;;;;;;;;5018279;28;20178;-71
2023/10/23 06:48:23;;;;;;;4.33;1.33;;;10.80;99.90;;;;;;5031291;28;20371;-72
2023/10/23 06:50:48;;;;;;;2.40;1.00;;;10.70;99.90;;;;;;5031323;28;20174;-71
2023/10/23 06:53:15;;;;;;;10.37;1.60;;;10.50;99.90;;;;;;5031113;28;20201;-70
2023/10/23 06:55:52;;;;;;;5.00;1.43;;;11.00;99.90;;;;;;5031065;28;20166;-71
2023/10/23 06:58:19;;;;;;;8.53;1.33;;;10.70;99.90;;;;;;5031035;28;20184;-71
2023/10/23 07:00:45;;;;;;;5.27;1.37;;;11.30;99.90;;;;;;5031484;28;20536;-71
2023/10/23 07:03:11;;;;;;;9.33;1.50;;;10.70;99.90;;;;;;5031161;28;20275;-71
2023/10/23 07:05:37;;;;;;;6.27;1.20;;;10.90;99.90;;;;;;5029865;28;20654;-73
2023/10/23 07:08:03;;;;;;;7.30;1.37;;;10.90;99.90;;;;;;5021012;28;20324;-72
2023/10/23 07:10:40;;;;;;;6.47;1.30;;;11.90;99.90;;;;;;4997330;28;20253;-73
2023/10/23 07:13:05;;;;;;;7.70;1.20;;;11.00;99.90;;;;;;5011403;28;20182;-73
2023/10/23 07:15:34;;;;;;;8.93;1.50;;;11.00;99.90;;;;;;5011252;28;20182;-73
2023/10/23 07:18:01;;;;;;;3.07;1.20;;;;;;;;;;5011422;28;20198;-73
2023/10/23 07:20:27;;;;;;;8.07;2.10;;;;;;;;;;5011361;28;20302;-73
2023/10/23 07:22:53;;;;;;;7.67;1.77;;;;;;;;;;5011139;28;20262;-73
2023/10/23 07:25:19;;;;;;;8.80;1.43;;;;;;;;;;5021382;28;20246;-73
2023/10/23 07:27:44;;;;;;;9.63;1.40;;;11.20;99.90;;;;;;5036521;28;20197;-73
2023/10/23 07:30:11;;;;;;;6.17;1.47;;;9.60;99.90;;;;;;5033592;28;20644;-74
2023/10/23 07:32:37;;;;;;;9.23;1.87;;;;;;;;;;5005264;28;20196;-73
2023/10/23 07:35:04;;;;;;;7.80;1.90;;;;;;;;;;5032693;28;20644;-74
2023/10/23 07:37:30;;;;;;;7.67;1.70;;;11.30;99.90;;;;;;5030199;28;20185;-73
2023/10/23 07:39:57;;;;;;;4.93;1.40;;;11.30;99.90;;;;;;5029990;28;20189;-73
2023/10/23 07:42:23;;;;;;;6.30;1.70;;;;;;;;;;5030775;28;20174;-73
2023/10/23 07:44:49;;;;;;;7.20;1.60;;;;;;;;;;5030461;28;20228;-73
2023/10/23 07:47:14;;;;;;;13.17;1.87;;;11.60;99.90;;;;;;5030824;28;20633;-74
2023/10/23 07:49:40;;;;;;;7.10;1.67;;;11.50;99.90;;;;;;5030784;28;20182;-73
2023/10/23 07:52:06;;;;;;;3.80;1.20;;;11.30;99.90;;;;;;5035096;28;20657;-73
2023/10/23 07:54:31;;;;;;;7.40;1.40;;;11.80;99.90;;;;;;5040062;28;20647;-73
2023/10/23 07:56:57;;;;;;;11.87;1.87;;;11.90;99.90;;;;;;5028715;28;20261;-73
2023/10/23 07:59:25;;;;;;;7.97;1.60;;;;;;;;;;5030033;28;20645;-74
2023/10/23 08:01:52;;;;;;;4.37;1.37;;;11.90;99.90;;;;;;5005410;28;20265;-74
2023/10/23 08:04:18;;;;;;;11.53;1.60;;;12.00;99.90;;;;;;5024930;28;20209;-74
2023/10/23 08:06:43;;;;;;;4.60;1.33;;;12.10;99.90;;;;;;5030320;28;20193;-73
2023/10/23 08:09:10;;;;;;;7.47;1.67;;;12.20;99.90;;;;;;5029994;28;20568;-73
2023/10/23 08:11:35;;;;;;;7.90;1.50;;;12.40;99.90;;;;;;5029893;28;20185;-73
2023/10/23 08:14:01;;;;;;;6.50;1.43;;;12.30;99.90;;;;;;5028913;28;20186;-74
2023/10/23 08:16:27;;;;;;;7.70;1.63;;;12.60;99.90;;;;;;5031664;28;20176;-73
2023/10/23 08:18:53;;;;;;;15.68;1.48;;;12.80;99.90;;;;;;5033946;28;20188;-72
2023/10/23 08:21:19;;;;;;;8.38;1.65;;;12.60;99.90;;;;;;5033549;28;20585;-72
2023/10/23 08:23:52;;;;;;;13.48;1.75;;;12.70;99.90;;;;;;5033470;28;20675;-73
2023/10/23 08:26:18;;;;;;;7.93;1.50;;;12.80;99.90;;;;;;5033798;28;20656;-73
2023/10/23 08:28:43;;;;;;;7.75;1.70;;;12.80;99.90;;;;;;5032804;28;20272;-73
2023/10/23 08:31:09;;;;;;;8.23;1.53;;;12.90;99.90;;;;;;5033437;28;20736;-73
2023/10/23 08:33:35;;;;;;;12.48;1.80;;;13.00;99.90;;;;;;5032123;28;20261;-73
2023/10/23 08:36:00;;;;;;;5.90;1.23;;;13.00;99.90;;;;;;5032744;28;20170;-73
2023/10/23 08:38:27;;;;;;;8.23;2.10;;;13.10;99.90;;;;;;5033518;28;20184;-73
2023/10/23 08:40:55;;;;;;;7.70;2.00;;;13.20;99.90;;;;;;5031888;28;20197;-73
2023/10/23 08:43:21;;;;;;;11.60;2.22;;;13.10;99.90;;;;;;5033534;28;20365;-73
2023/10/23 08:45:48;;;;;;;9.65;1.80;;;13.20;99.90;;;;;;5032653;28;20184;-73
2023/10/23 08:48:14;;;;;;;6.25;1.80;;;13.20;99.90;;;;;;5034801;28;20178;-74
2023/10/23 08:50:42;;;;;;;16.33;1.70;;;13.20;99.90;;;;;;5027439;28;20174;-72
2023/10/23 08:53:11;;;;;;;8.02;1.63;;;13.30;99.90;;;;;;5028373;28;20186;-74
2023/10/23 08:55:37;;;;;;;11.23;1.90;;;13.50;99.90;;;;;;5031752;28;20185;-73
2023/10/23 08:58:04;;;;;;;11.32;1.98;;;13.60;99.90;;;;;;5030841;28;20178;-73
2023/10/23 09:00:30;;;;;;;11.27;1.42;;;13.60;99.90;;;;;;5032643;28;20255;-72
2023/10/23 09:02:58;;;;;;;6.10;1.60;;;13.70;99.90;;;;;;5032419;28;20250;-72
2023/10/23 09:05:24;;;;;;;12.75;1.88;;;13.70;99.90;;;;;;5032513;28;20185;-72
2023/10/23 09:07:50;;;;;;;9.85;1.58;;;;;;;;;;5013310;28;20521;-72
2023/10/23 09:10:16;;;;;;;17.40;1.90;;;13.50;99.90;;;;;;5031061;28;20747;-73
2023/10/23 09:12:41;;;;;;;8.50;2.03;;;13.80;99.90;;;;;;5031828;28;20280;-73
2023/10/23 09:15:17;;;;;;;6.50;1.90;;;13.70;99.90;;;;;;5032309;28;20233;-73
2023/10/23 09:17:44;;;;;;;10.43;2.38;;;13.70;99.90;;;;;;5032872;28;20532;-73
2023/10/23 09:20:19;;;;;;;7.07;1.77;;;13.80;99.90;;;;;;5031833;28;20174;-73
2023/10/23 09:22:49;;;;;;;9.65;1.58;;;13.80;99.90;;;;;;5032560;28;20402;-72
2023/10/23 09:25:22;;;;;;;5.65;1.20;;;14.10;99.90;;;;;;5032835;28;20174;-72
2023/10/23 09:27:48;;;;;;;10.18;1.90;;;14.00;99.90;;;;;;5031852;28;20182;-73
2023/10/23 09:30:20;;;;;;;13.23;1.95;;;14.10;99.90;;;;;;5031850;28;20177;-73
2023/10/23 09:32:49;;;;;;;8.52;2.25;;;14.10;99.90;;;;;;5033085;28;20181;-74
2023/10/23 09:35:15;;;;;;;10.15;1.67;;;14.00;99.90;;;;;;5032763;28;20192;-72
2023/10/23 09:37:41;;;;;;;7.45;2.05;;;14.10;99.90;;;;;;5032254;28;20644;-73
2023/10/23 09:40:08;;;;;;;11.38;1.67;;;14.10;99.90;;;;;;5032298;28;20517;-74
2023/10/23 09:42:34;;;;;;;6.63;1.90;;;14.30;99.90;;;;;;5033411;28;20174;-73
2023/10/23 09:45:04;;;;;;;9.88;2.05;;;13.20;99.90;;;;;;5046617;28;20985;-75
2023/10/23 09:47:31;;;;;;;10.38;1.88;;;14.30;99.90;;;;;;5032395;28;20224;-74
2023/10/23 09:49:58;;;;;;;10.75;1.98;;;14.30;99.90;;;;;;5046959;28;20200;-74
2023/10/23 09:52:25;;;;;;;12.48;1.90;;;14.40;99.90;;;;;;5056198;28;20201;-71
2023/10/23 09:55:00;;;;;;;6.00;1.55;;;14.50;99.90;;;;;;5040771;28;20177;-73
2023/10/23 09:57:39;;;;;;;7.40;1.45;;;14.70;99.90;;;;;;5031724;28;20409;-74
2023/10/23 10:00:16;;;;;;;14.93;1.98;;;14.80;99.90;;;;;;5032427;28;20231;-73
2023/10/23 10:02:57;;;;;;;10.50;1.92;;;14.70;99.90;;;;;;5030372;28;20184;-76
2023/10/23 10:05:46;;;;;;;15.10;2.08;;;14.60;99.90;;;;;;5027495;28;20276;-73
2023/10/23 10:08:15;;;;;;;11.90;1.70;;;14.70;99.90;;;;;;4987720;28;20224;-74
2023/10/23 10:10:43;;;;;;;10.98;1.88;;;14.90;99.90;;;;;;5013742;28;20258;-74
2023/10/23 10:13:11;;;;;;;10.63;1.98;;;15.10;99.90;;;;;;5027269;28;20184;-74
2023/10/23 10:15:38;;;;;;;9.88;1.45;;;15.00;99.90;;;;;;5032476;28;20178;-74
2023/10/23 10:18:03;;;;;;;11.65;1.95;;;15.10;99.90;;;;;;5031962;28;20232;-73
2023/10/23 10:20:30;;;;;;;18.02;2.33;;;15.30;99.90;;;;;;5014358;28;20182;-73
2023/10/23 10:23:09;;;;;;;7.90;1.45;;;15.40;99.90;;;;;;5031413;28;20252;-74
2023/10/23 10:25:35;;;;;;;8.18;1.60;;;15.50;99.90;;;;;;5031561;28;20272;-74
2023/10/23 10:28:06;;;;;;;13.73;1.90;;;15.40;99.90;;;;;;5032951;28;20220;-74
2023/10/23 10:30:45;;;;;;;8.13;1.77;;;15.50;99.90;;;;;;5032340;28;20170;-74
2023/10/23 10:33:18;;;;;;;13.60;2.33;;;15.60;99.90;;;;;;5033677;28;20181;-75
2023/10/23 10:35:50;;;;;;;14.70;2.17;;;15.90;99.90;;;;;;5033244;28;20178;-75
2023/10/23 10:38:22;;;;;;;11.63;1.70;;;15.90;99.90;;;;;;5031627;28;20169;-75
2023/10/23 10:41:02;;;;;;;13.07;2.08;;;16.00;99.90;;;;;;5030976;28;20268;-75
2023/10/23 10:43:33;;;;;;;17.35;2.08;;;16.20;99.90;;;;;;5031737;28;20213;-74
2023/10/23 10:46:04;;;;;;;7.07;1.50;;;16.30;99.90;;;;;;5037487;28;20180;-73
2023/10/23 10:48:44;;;;;;;10.65;1.80;;;16.10;99.90;;;;;;5034874;28;20208;-75
2023/10/23 10:51:19;;;;;;;6.78;1.50;;;16.30;99.90;;;;;;5031631;28;20166;-74
2023/10/23 10:53:46;;;;;;;10.30;1.40;;;16.30;99.90;;;;;;5030475;28;20189;-74
2023/10/23 10:56:12;;;;;;;8.63;1.63;;;16.20;99.90;;;;;;5031182;28;20182;-73
2023/10/23 10:58:39;;;;;;;11.10;1.73;;;16.10;99.90;;;;;;5032732;28;20192;-74
2023/10/23 11:01:05;;;;;;;9.40;2.33;;;16.10;99.90;;;;;;5013289;28;20174;-73
2023/10/23 11:03:31;;;;;;;15.95;2.38;;;16.40;99.90;;;;;;5031252;28;20206;-74
2023/10/23 11:05:56;;;;;;;7.95;1.70;;;16.40;99.90;;;;;;5031500;28;20244;-73
2023/10/23 11:08:22;;;;;;;9.57;1.70;;;16.70;99.90;;;;;;5031410;28;20713;-73
2023/10/23 11:10:48;;;;;;;10.43;1.45;;;16.80;99.90;;;;;;5035928;28;20178;-73
2023/10/23 11:13:16;;;;;;;8.70;1.50;;;17.10;99.90;;;;;;5017830;28;20231;-72
2023/10/23 11:15:42;;;;;;;8.43;1.67;;;16.90;99.90;;;;;;5035163;28;20177;-74
2023/10/23 11:18:08;;;;;;;10.93;1.75;;;17.20;99.90;;;;;;5035239;28;20244;-73
2023/10/23 11:20:37;;;;;;;8.40;1.50;;;17.00;99.90;;;;;;5034756;28;20193;-74
2023/10/23 11:23:04;;;;;;;7.38;1.55;;;17.50;99.90;;;;;;5033694;28;20611;-74
2023/10/23 11:25:29;;;;;;;14.48;2.10;;;17.40;99.90;;;;;;5033199;28;20208;-73
2023/10/23 11:27:55;;;;;;;10.32;2.05;;;17.30;99.90;;;;;;5030878;28;20644;-74
2023/10/23 11:30:25;;;;;;;9.77;1.60;;;17.10;99.90;;;;;;5031329;28;20180;-73
2023/10/23 11:32:51;;;;;;;9.60;2.30;;;17.30;99.90;;;;;;5030506;28;20232;-74
2023/10/23 11:35:17;;;;;;;7.53;2.13;;;16.90;99.90;;;;;;5012494;28;20181;-73
2023/10/23 11:37:43;;;;;;;10.95;1.80;;;16.50;99.90;;;;;;5030039;28;20223;-74
2023/10/23 11:40:10;;;;;;;11.40;2.10;;;16.60;99.90;;;;;;5030851;28;20265;-73
2023/10/23 11:42:49;;;;;;;8.48;1.83;;;17.10;99.90;;;;;;5030653;28;20174;-74
2023/10/23 11:45:17;;;;;;;7.43;1.83;;;17.10;99.90;;;;;;5031053;28;20200;-73
2023/10/23 11:47:43;;;;;;;8.43;1.35;;;17.10;99.90;;;;;;5031633;28;20190;-73
2023/10/23 11:50:15;;;;;;;7.22;1.85;;;16.70;99.90;;;;;;5031159;28;20291;-72
2023/10/23 11:52:45;;;;;;;16.27;1.90;;;17.00;99.90;;;;;;5034589;28;20177;-73
2023/10/23 11:55:14;;;;;;;9.35;2.08;;;17.30;99.90;;;;;;5036120;28;20177;-72
2023/10/23 11:57:47;;;;;;;7.53;1.95;;;17.20;99.90;;;;;;5035104;28;20189;-74
2023/10/23 12:00:14;;;;;;;14.35;2.40;;;17.90;99.90;;;;;;5036099;28;20176;-74
2023/10/23 12:02:42;;;;;;;11.02;2.20;;;18.00;99.90;;;;;;5035533;28;20178;-74
2023/10/23 12:05:12;;;;;;;10.57;1.83;;;18.00;99.90;;;;;;5034947;28;20177;-73
2023/10/23 12:07:53;;;;;;;6.43;1.35;;;17.70;99.90;;;;;;5028960;28;20162;-72
2023/10/23 12:10:20;;;;;;;11.27;2.17;;;18.10;99.90;;;;;;5014611;28;20253;-74
2023/10/23 12:12:47;;;;;;;10.45;1.80;;;18.00;99.90;;;;;;4980678;28;20195;-74
2023/10/23 12:15:14;;;;;;;6.68;1.70;;;17.60;99.90;;;;;;5015867;28;20572;-74
2023/10/23 12:17:41;;;;;;;10.95;1.95;;;17.50;99.90;;;;;;5022145;28;20151;-74
2023/10/23 12:20:09;;;;;;;8.35;1.70;;;16.70;99.90;;;;;;5052856;28;20206;-74
2023/10/23 12:22:40;;;;;;;10.43;2.15;;;16.70;99.90;;;;;;5044167;28;20229;-74
2023/10/23 12:25:07;;;;;;;13.40;2.22;;;16.70;99.90;;;;;;5038061;28;20284;-73
2023/10/23 12:27:33;;;;;;;8.13;1.48;;;16.70;99.90;;;;;;5035843;28;20177;-75
2023/10/23 12:30:00;;;;;;;8.25;1.60;;;16.90;99.90;;;;;;5035728;28;20178;-75
2023/10/23 12:32:26;;;;;;;15.30;1.83;;;17.00;99.90;;;;;;5035808;28;20166;-74
2023/10/23 12:34:57;;;;;;;11.75;1.63;;;17.00;99.90;;;;;;5035451;28;20170;-75
2023/10/23 12:37:26;;;;;;;8.05;1.90;;;16.80;99.90;;;;;;5037190;28;20174;-75
2023/10/23 12:39:53;;;;;;;10.63;1.40;;;16.70;99.90;;;;;;5034811;28;20220;-74
2023/10/23 12:42:18;;;;;;;10.13;1.50;;;17.20;99.90;;;;;;5034230;28;20181;-74
2023/10/23 12:44:45;;;;;;;13.65;2.28;;;17.40;99.90;;;;;;5032936;28;20214;-74
2023/10/23 12:47:11;;;;;;;12.35;1.38;;;17.60;99.90;;;;;;5030951;28;20190;-73
2023/10/23 12:49:37;;;;;;;10.68;1.40;;;17.20;99.90;;;;;;5033270;28;20204;-74
2023/10/23 12:52:04;;;;;;;12.05;1.60;;;17.10;99.90;;;;;;5016316;28;20653;-73
2023/10/23 12:54:30;;;;;;;12.25;2.05;;;17.20;99.90;;;;;;5034829;28;20263;-71
2023/10/23 12:56:57;;;;;;;10.07;1.63;;;17.30;99.90;;;;;;5011965;28;20174;-75
2023/10/23 12:59:23;;;;;;;6.57;1.50;;;17.40;99.90;;;;;;5034229;28;20649;-74
2023/10/23 13:01:49;;;;;;;16.08;1.60;;;17.50;99.90;;;;;;5033107;28;20224;-75